createdAt,value
2022-08-17T00:00:34.883Z,22.73
2022-08-17T00:03:09.986Z,21.75
2022-08-17T00:05:42.347Z,21.52
2022-08-17T00:08:10.861Z,21.85
2022-08-17T00:10:38.730Z,21.02
2022-08-17T00:13:08.523Z,22.13
2022-08-17T00:15:36.480Z,22.25
2022-08-17T00:18:04.741Z,21.05
2022-08-17T00:20:54.963Z,21.42
2022-08-17T00:23:23.569Z,21.30
2022-08-17T00:25:51.591Z,20.70
2022-08-17T00:28:20.932Z,20.10
2022-08-17T00:30:53.388Z,19.70
2022-08-17T00:33:24.079Z,19.83
2022-08-17T00:35:53.994Z,18.98
2022-08-17T00:38:22.879Z,19.35
2022-08-17T00:40:55.934Z,19.63
2022-08-17T00:43:32.154Z,19.30
2022-08-17T00:46:01.366Z,19.85
2022-08-17T00:48:30.873Z,19.33
2022-08-17T00:51:09.037Z,18.73
2022-08-17T00:53:41.827Z,19.73
2022-08-17T00:56:13.674Z,20.00
2022-08-17T00:58:42.159Z,20.58
2022-08-17T01:01:12.348Z,20.00
2022-08-17T01:03:49.734Z,19.73
2022-08-17T01:06:19.285Z,20.50
2022-08-17T01:08:47.325Z,20.02
2022-08-17T01:11:15.400Z,21.38
2022-08-17T01:13:44.746Z,21.40
2022-08-17T01:16:16.961Z,20.50
2022-08-17T01:18:47.626Z,20.83
2022-08-17T01:21:25.590Z,23.30
2022-08-17T01:23:55.005Z,22.27
2022-08-17T01:26:23.622Z,23.25
2022-08-17T01:28:54.242Z,22.90
2022-08-17T01:31:25.049Z,21.95
2022-08-17T01:33:52.884Z,22.35
2022-08-17T01:36:20.768Z,22.65
2022-08-17T01:38:48.785Z,21.67
2022-08-17T01:41:18.220Z,22.83
2022-08-17T01:43:51.894Z,21.90
2022-08-17T01:46:25.961Z,23.73
2022-08-17T01:48:54.529Z,21.95
2022-08-17T01:51:22.705Z,21.30
2022-08-17T01:53:53.698Z,21.98
2022-08-17T01:56:25.318Z,21.33
2022-08-17T01:58:54.163Z,22.33
2022-08-17T02:01:24.593Z,20.70
2022-08-17T02:03:53.255Z,21.75
2022-08-17T02:06:28.940Z,20.08
2022-08-17T02:09:02.291Z,22.77
2022-08-17T02:11:35.243Z,23.23
2022-08-17T02:14:05.277Z,23.13
2022-08-17T02:16:37.889Z,23.45
2022-08-17T02:19:07.653Z,24.17
2022-08-17T02:21:35.957Z,23.90
2022-08-17T02:24:04.465Z,23.55
2022-08-17T02:26:33.699Z,23.25
2022-08-17T02:29:01.939Z,22.05
2022-08-17T02:31:30.019Z,22.27
2022-08-17T02:34:03.445Z,21.33
2022-08-17T02:36:32.520Z,22.00
2022-08-17T02:39:01.484Z,21.55
2022-08-17T02:41:29.408Z,20.88
2022-08-17T02:43:58.681Z,22.50
2022-08-17T02:46:27.110Z,21.75
2022-08-17T02:48:54.825Z,19.98
2022-08-17T02:51:22.952Z,21.70
2022-08-17T02:53:50.778Z,21.55
2022-08-17T02:56:18.549Z,21.90
2022-08-17T02:58:46.415Z,23.08
2022-08-17T03:01:15.939Z,22.92
2022-08-17T03:03:44.063Z,22.60
2022-08-17T03:06:12.336Z,23.00
2022-08-17T03:08:40.586Z,22.48
2022-08-17T03:11:08.489Z,22.48
2022-08-17T03:13:36.502Z,21.27
2022-08-17T03:16:04.734Z,20.92
2022-08-17T03:18:34.034Z,20.25
2022-08-17T03:21:04.300Z,21.17
2022-08-17T03:23:33.714Z,22.25
2022-08-17T03:26:01.986Z,22.67
2022-08-17T03:28:30.135Z,21.38
2022-08-17T03:30:58.011Z,22.13
2022-08-17T03:33:25.867Z,21.75
2022-08-17T03:35:55.084Z,22.95
2022-08-17T03:38:23.196Z,22.58
2022-08-17T03:40:56.290Z,21.60
2022-08-17T03:43:29.297Z,20.92
2022-08-17T03:46:28.233Z,21.17
2022-08-17T03:49:20.634Z,20.15
2022-08-17T03:52:07.397Z,20.88
2022-08-17T03:54:53.170Z,20.02
2022-08-17T03:57:21.222Z,19.92
2022-08-17T03:59:49.456Z,20.92
2022-08-17T04:02:20.702Z,20.83
2022-08-17T04:04:50.794Z,20.65
2022-08-17T04:07:22.779Z,21.90
2022-08-17T04:09:50.579Z,21.70
2022-08-17T04:12:26.014Z,20.77
2022-08-17T04:14:55.253Z,21.20
2022-08-17T04:17:26.320Z,21.17
2022-08-17T04:19:55.418Z,20.17
2022-08-17T04:22:33.005Z,21.95
2022-08-17T04:25:08.441Z,20.98
2022-08-17T04:27:36.687Z,19.35
2022-08-17T04:30:07.874Z,20.15
2022-08-17T04:33:04.150Z,20.15
2022-08-17T04:35:37.136Z,19.95
2022-08-17T04:38:07.149Z,20.55
2022-08-17T04:40:52.461Z,20.92
2022-08-17T04:43:22.578Z,21.45
2022-08-17T04:45:55.406Z,19.08
2022-08-17T04:48:29.589Z,20.23
2022-08-17T04:51:10.351Z,19.20
2022-08-17T04:53:41.221Z,19.85
2022-08-17T04:56:11.684Z,19.67
2022-08-17T04:58:46.278Z,20.08
2022-08-17T05:01:14.871Z,19.85
2022-08-17T05:03:42.947Z,19.88
2022-08-17T05:06:11.760Z,18.55
2022-08-17T05:08:40.998Z,18.98
2022-08-17T05:11:09.353Z,19.55
2022-08-17T05:13:37.283Z,19.02
2022-08-17T05:16:06.190Z,18.75
2022-08-17T05:18:33.941Z,19.50
2022-08-17T05:21:03.820Z,19.13
2022-08-17T05:23:42.246Z,18.38
2022-08-17T05:26:21.382Z,17.90
2022-08-17T05:28:57.120Z,20.40
2022-08-17T05:31:28.863Z,19.45
2022-08-17T05:33:56.714Z,17.35
2022-08-17T05:36:41.640Z,18.00
2022-08-17T05:39:15.868Z,21.17
2022-08-17T05:41:47.773Z,20.20
2022-08-17T05:44:15.878Z,20.77
2022-08-17T05:46:49.058Z,18.00
2022-08-17T05:49:20.129Z,20.88
2022-08-17T05:52:19.956Z,18.43
2022-08-17T05:55:02.189Z,17.55
2022-08-17T05:57:43.359Z,18.05
2022-08-17T06:00:30.413Z,17.58
2022-08-17T06:03:11.835Z,17.65
2022-08-17T06:05:55.531Z,17.87
2022-08-17T06:08:32.266Z,17.75
2022-08-17T06:11:07.796Z,17.33
2022-08-17T06:13:54.677Z,18.63
2022-08-17T06:16:34.142Z,17.48
2022-08-17T06:19:06.021Z,19.85
2022-08-17T06:21:37.049Z,19.10
2022-08-17T06:24:09.021Z,19.03
2022-08-17T06:26:43.269Z,18.35
2022-08-17T06:29:22.333Z,19.60
2022-08-17T06:31:51.054Z,19.63
2022-08-17T06:34:21.668Z,18.23
2022-08-17T06:36:57.635Z,19.30
2022-08-17T06:39:41.428Z,18.10
2022-08-17T06:43:02.398Z,18.38
2022-08-17T06:45:18.998Z,18.50
2022-08-17T06:47:52.800Z,18.88
2022-08-17T06:50:29.727Z,18.27
2022-08-17T06:53:05.505Z,17.55
2022-08-17T06:55:44.121Z,19.17
2022-08-17T06:58:16.503Z,19.60
2022-08-17T07:00:48.830Z,19.33
2022-08-17T07:03:27.462Z,19.17
2022-08-17T07:06:00.123Z,20.08
2022-08-17T07:08:35.079Z,19.75
2022-08-17T07:11:07.781Z,19.17
2022-08-17T07:13:51.452Z,19.92
2022-08-17T07:16:27.417Z,20.98
2022-08-17T07:18:58.646Z,19.15
2022-08-17T07:21:45.951Z,20.58
2022-08-17T07:24:30.714Z,21.52
2022-08-17T07:27:12.056Z,21.10
2022-08-17T07:29:44.152Z,19.63
2022-08-17T07:32:18.490Z,20.77
2022-08-17T07:35:10.743Z,21.20
2022-08-17T07:37:40.881Z,22.48
2022-08-17T07:40:22.253Z,20.92
2022-08-17T07:43:06.501Z,19.42
2022-08-17T07:45:53.237Z,19.77
2022-08-17T07:48:27.350Z,19.33
2022-08-17T07:50:55.221Z,20.48
2022-08-17T07:53:25.701Z,19.70
2022-08-17T07:55:54.580Z,20.10
2022-08-17T07:58:24.604Z,20.67
2022-08-17T08:01:08.889Z,22.98
2022-08-17T08:03:43.893Z,22.40
2022-08-17T08:06:21.746Z,23.08
2022-08-17T08:08:54.728Z,23.13
2022-08-17T08:11:34.870Z,22.00
2022-08-17T08:14:18.946Z,21.55
2022-08-17T08:16:58.987Z,22.75
2022-08-17T08:19:29.602Z,25.23
2022-08-17T08:22:05.516Z,23.27
2022-08-17T08:24:57.907Z,23.77
2022-08-17T08:27:37.570Z,22.55
2022-08-17T08:30:10.156Z,22.92
2022-08-17T08:32:54.365Z,22.33
2022-08-17T08:35:32.472Z,21.80
2022-08-17T08:38:10.897Z,21.67
2022-08-17T08:40:57.059Z,22.52
2022-08-17T08:43:37.110Z,21.38
2022-08-17T08:46:13.369Z,21.65
2022-08-17T08:49:11.880Z,22.20
2022-08-17T08:51:51.641Z,22.38
2022-08-17T08:54:34.847Z,21.30
2022-08-17T08:57:26.782Z,19.95
2022-08-17T09:00:08.560Z,20.80
2022-08-17T09:02:55.169Z,20.13
2022-08-17T09:05:32.980Z,19.10
2022-08-17T09:08:12.570Z,18.75
2022-08-17T09:10:55.966Z,18.75
2022-08-17T09:13:31.263Z,16.98
2022-08-17T09:16:03.978Z,17.38
2022-08-17T09:19:00.418Z,18.13
2022-08-17T09:21:33.688Z,18.67
2022-08-17T09:24:12.754Z,17.52
2022-08-17T09:26:47.461Z,17.48
2022-08-17T09:29:17.894Z,16.75
2022-08-17T09:31:55.016Z,15.82
2022-08-17T09:34:33.082Z,16.45
2022-08-17T09:37:14.231Z,16.27
2022-08-17T09:39:52.388Z,14.98
2022-08-17T09:42:27.979Z,16.48
2022-08-17T09:45:03.798Z,17.10
2022-08-17T09:47:36.868Z,16.70
2022-08-17T09:50:11.516Z,17.55
2022-08-17T09:52:39.528Z,15.98
2022-08-17T09:55:09.287Z,16.52
2022-08-17T09:57:51.459Z,15.75
2022-08-17T10:00:26.341Z,14.93
2022-08-17T10:03:29.110Z,15.85
2022-08-17T10:06:06.479Z,15.82
2022-08-17T10:08:40.849Z,16.48
2022-08-17T10:11:22.521Z,16.35
2022-08-17T10:14:36.742Z,15.00
2022-08-17T10:17:04.087Z,14.80
2022-08-17T10:19:38.780Z,13.95
2022-08-17T10:22:35.415Z,13.82
2022-08-17T10:25:42.550Z,14.60
2022-08-17T10:28:24.695Z,14.23
2022-08-17T10:31:23.432Z,13.63
2022-08-17T10:33:59.798Z,13.10
2022-08-17T10:36:37.936Z,14.38
2022-08-17T10:39:22.679Z,14.25
2022-08-17T10:41:54.005Z,13.65
2022-08-17T10:44:38.828Z,14.57
2022-08-17T10:47:11.626Z,14.68
2022-08-17T10:49:47.723Z,14.10
2022-08-17T10:52:48.629Z,13.65
2022-08-17T10:55:20.325Z,15.10
2022-08-17T10:57:50.638Z,13.90
2022-08-17T11:01:08.944Z,14.60
2022-08-17T11:03:38.241Z,15.52
2022-08-17T11:06:17.852Z,15.95
2022-08-17T11:09:03.665Z,15.27
2022-08-17T11:11:54.231Z,15.95
2022-08-17T11:14:49.649Z,16.33
2022-08-17T11:17:32.401Z,15.95
2022-08-17T11:20:41.625Z,16.05
2022-08-17T11:23:37.373Z,17.00
2022-08-17T11:26:23.061Z,17.00
2022-08-17T11:28:54.349Z,16.25
2022-08-17T11:34:15.093Z,15.60
2022-08-17T11:37:02.604Z,16.92
2022-08-17T11:40:09.016Z,16.42
2022-08-17T11:43:04.475Z,17.92
2022-08-17T11:45:53.971Z,18.38
2022-08-17T11:48:51.302Z,16.52
2022-08-17T11:51:37.144Z,15.13
2022-08-17T11:54:32.444Z,15.27
2022-08-17T11:57:22.296Z,15.52
2022-08-17T12:00:00.794Z,17.50
2022-08-17T12:02:47.371Z,16.20
2022-08-17T12:05:28.854Z,16.80
2022-08-17T12:08:08.603Z,16.75
2022-08-17T12:10:50.721Z,15.77
2022-08-17T12:13:19.802Z,14.70
2022-08-17T12:15:52.879Z,17.10
2022-08-17T12:18:23.321Z,17.52
2022-08-17T12:21:08.670Z,17.42
2022-08-17T12:23:44.129Z,17.13
2022-08-17T12:26:19.576Z,17.13
2022-08-17T12:28:50.148Z,17.05
2022-08-17T12:31:22.963Z,16.75
2022-08-17T12:33:53.199Z,16.80
2022-08-17T12:36:25.579Z,17.10
2022-08-17T12:38:59.420Z,17.27
2022-08-17T12:41:44.245Z,18.05
2022-08-17T12:44:16.063Z,17.13
2022-08-17T12:46:56.569Z,16.48
2022-08-17T12:49:29.565Z,16.65
2022-08-17T12:52:15.670Z,16.92
2022-08-17T12:54:50.777Z,17.55
2022-08-17T12:57:21.704Z,17.42
2022-08-17T12:59:55.109Z,17.08
2022-08-17T13:02:32.602Z,16.85
2022-08-17T13:05:02.473Z,16.08
2022-08-17T13:07:36.271Z,16.30
2022-08-17T13:10:05.821Z,16.35
2022-08-17T13:12:36.398Z,15.45
2022-08-17T13:15:04.846Z,15.52
2022-08-17T13:17:37.035Z,14.73
2022-08-17T13:20:06.960Z,15.90
2022-08-17T13:22:35.035Z,16.23
2022-08-17T13:25:08.424Z,15.20
2022-08-17T13:27:38.240Z,14.60
2022-08-17T13:30:11.839Z,14.85
2022-08-17T13:32:44.991Z,15.85
2022-08-17T13:35:39.724Z,16.25
2022-08-17T13:38:11.694Z,15.70
2022-08-17T13:43:11.946Z,14.80
2022-08-17T13:45:53.460Z,14.70
2022-08-17T13:48:29.039Z,15.35
2022-08-17T13:51:20.983Z,13.65
2022-08-17T13:53:54.456Z,14.18
2022-08-17T13:56:36.964Z,13.60
2022-08-17T13:59:09.174Z,12.82
2022-08-17T14:01:40.343Z,12.63
2022-08-17T14:04:13.078Z,13.25
2022-08-17T14:06:53.302Z,14.93
2022-08-17T14:09:24.003Z,13.43
2022-08-17T14:11:52.761Z,14.63
2022-08-17T14:14:23.122Z,13.30
2022-08-17T14:16:51.635Z,13.90
2022-08-17T14:19:21.896Z,14.77
2022-08-17T14:21:50.172Z,15.33
2022-08-17T14:24:23.995Z,15.38
2022-08-17T14:26:53.018Z,15.45
2022-08-17T14:29:22.320Z,16.63
2022-08-17T14:31:54.264Z,15.95
2022-08-17T14:34:25.137Z,15.88
2022-08-17T14:36:53.728Z,14.30
2022-08-17T14:39:21.854Z,15.05
2022-08-17T14:41:50.834Z,14.07
2022-08-17T14:44:18.650Z,13.50
2022-08-17T14:46:47.922Z,13.15
2022-08-17T14:49:16.075Z,13.35
2022-08-17T14:51:45.140Z,14.38
2022-08-17T14:54:34.319Z,15.77
2022-08-17T14:57:22.171Z,14.43
2022-08-17T14:59:53.365Z,14.32
2022-08-17T15:02:29.672Z,14.25
2022-08-17T15:05:02.469Z,14.25
2022-08-17T15:07:32.132Z,13.07
2022-08-17T15:10:01.491Z,13.93
2022-08-17T15:12:34.718Z,14.98
2022-08-17T15:15:04.880Z,14.27
2022-08-17T15:17:43.992Z,13.18
2022-08-17T15:20:15.920Z,13.88
2022-08-17T15:22:46.348Z,13.27
2022-08-17T15:25:15.605Z,13.77
2022-08-17T15:27:43.984Z,13.60
2022-08-17T15:30:13.038Z,13.30
2022-08-17T15:32:50.605Z,13.95
2022-08-17T15:35:28.341Z,10.82
2022-08-17T15:38:08.346Z,11.07
2022-08-17T15:40:41.478Z,9.55
2022-08-17T15:43:11.576Z,9.80
2022-08-17T15:45:40.378Z,10.52
2022-08-17T15:48:08.903Z,10.07
2022-08-17T15:50:37.454Z,9.57
2022-08-17T15:53:06.611Z,9.60
2022-08-17T15:55:35.106Z,9.45
2022-08-17T15:58:03.858Z,9.30
2022-08-17T16:00:37.472Z,9.68
2022-08-17T16:03:58.130Z,10.00
2022-08-17T16:06:08.499Z,10.00
2022-08-17T16:08:43.486Z,10.65
2022-08-17T16:11:12.221Z,10.57
2022-08-17T16:13:40.618Z,10.40
2022-08-17T16:16:09.101Z,10.27
2022-08-17T16:18:37.523Z,10.30
2022-08-17T16:21:22.563Z,10.45
2022-08-17T16:23:54.311Z,10.85
2022-08-17T16:26:22.886Z,11.55
2022-08-17T16:28:51.308Z,11.50
2022-08-17T16:31:19.135Z,11.30
2022-08-17T16:34:15.460Z,11.77
2022-08-17T16:36:35.526Z,11.70
2022-08-17T16:39:05.123Z,12.52
2022-08-17T16:41:45.317Z,12.05
2022-08-17T16:44:15.483Z,12.57
2022-08-17T16:46:45.835Z,11.65
2022-08-17T16:49:24.410Z,12.15
2022-08-17T16:52:03.991Z,11.57
2022-08-17T16:54:35.394Z,12.40
2022-08-17T16:57:04.979Z,11.32
2022-08-17T16:59:41.138Z,11.40
2022-08-17T17:02:13.872Z,11.57
2022-08-17T17:04:48.009Z,12.57
2022-08-17T17:07:38.711Z,12.88
2022-08-17T17:10:10.905Z,13.27
2022-08-17T17:13:02.594Z,12.05
2022-08-17T17:15:40.321Z,12.70
2022-08-17T17:18:12.693Z,12.45
2022-08-17T17:20:47.645Z,11.85
2022-08-17T17:23:30.259Z,12.13
2022-08-17T17:26:10.910Z,13.27
2022-08-17T17:28:49.042Z,12.60
2022-08-17T17:31:20.371Z,12.80
2022-08-17T17:33:51.004Z,12.27
2022-08-17T17:36:25.428Z,12.38
2022-08-17T17:38:55.574Z,12.93
2022-08-17T17:41:31.495Z,12.27
2022-08-17T17:44:03.533Z,12.52
2022-08-17T17:46:37.753Z,12.80
2022-08-17T17:49:05.981Z,12.73
2022-08-17T17:51:54.808Z,13.40
2022-08-17T17:54:44.795Z,12.73
2022-08-17T17:57:21.236Z,11.80
2022-08-17T17:59:57.650Z,12.93
2022-08-17T18:02:52.018Z,13.40
2022-08-17T18:05:48.698Z,13.23
2022-08-17T18:08:39.451Z,13.38
2022-08-17T18:11:20.864Z,14.32
2022-08-17T18:14:06.032Z,13.75
2022-08-17T18:16:35.634Z,13.10
2022-08-17T18:19:03.578Z,13.80
2022-08-17T18:21:38.811Z,14.82
2022-08-17T18:24:10.558Z,13.40
2022-08-17T18:26:52.324Z,13.85
2022-08-17T18:29:34.278Z,13.40
2022-08-17T18:32:19.426Z,14.55
2022-08-17T18:34:49.569Z,13.85
2022-08-17T18:37:33.059Z,14.52
2022-08-17T18:40:24.337Z,15.07
2022-08-17T18:43:00.954Z,14.38
2022-08-17T18:45:35.806Z,15.43
2022-08-17T18:48:04.301Z,15.60
2022-08-17T18:50:39.516Z,16.23
2022-08-17T18:53:26.791Z,15.55
2022-08-17T18:56:31.202Z,16.87
2022-08-17T18:59:06.143Z,16.90
2022-08-17T19:01:53.347Z,17.50
2022-08-17T19:04:36.433Z,17.00
2022-08-17T19:07:27.262Z,16.80
2022-08-17T19:09:59.561Z,16.30
2022-08-17T19:12:37.996Z,16.55
2022-08-17T19:15:09.394Z,16.00
2022-08-17T19:20:18.499Z,15.15
2022-08-17T19:23:06.293Z,15.80
2022-08-17T19:25:37.022Z,16.63
2022-08-17T19:28:21.543Z,16.63
2022-08-17T19:30:51.422Z,16.52
2022-08-17T19:33:20.975Z,16.42
2022-08-17T19:35:59.855Z,17.05
2022-08-17T19:38:39.826Z,17.15
2022-08-17T19:41:12.903Z,17.58
2022-08-17T19:43:57.034Z,16.17
2022-08-17T19:46:35.673Z,16.63
2022-08-17T19:49:12.593Z,18.55
2022-08-17T19:51:52.030Z,17.83
2022-08-17T19:54:26.935Z,18.30
2022-08-17T19:57:03.194Z,18.02
2022-08-17T19:59:48.830Z,18.13
2022-08-17T20:02:29.021Z,18.10
2022-08-17T20:05:02.502Z,17.75
2022-08-17T20:07:42.171Z,17.92
2022-08-17T20:10:13.485Z,19.23
2022-08-17T20:12:45.002Z,19.80
2022-08-17T20:17:47.887Z,18.90
2022-08-17T20:20:29.730Z,19.38
2022-08-17T20:23:03.681Z,20.10
2022-08-17T20:25:39.227Z,19.38
2022-08-17T20:28:23.714Z,20.13
2022-08-17T20:30:52.951Z,19.25
2022-08-17T20:33:27.935Z,19.73
2022-08-17T20:36:15.941Z,19.55
2022-08-17T20:38:47.059Z,20.63
2022-08-17T20:41:16.807Z,20.58
2022-08-17T20:43:51.322Z,21.35
2022-08-17T20:46:31.365Z,21.63
2022-08-17T20:49:14.725Z,22.20
2022-08-17T20:52:01.647Z,22.05
2022-08-17T20:54:44.222Z,21.65
2022-08-17T20:57:45.510Z,22.58
2022-08-17T21:00:34.263Z,22.15
2022-08-17T21:03:51.177Z,22.45
2022-08-17T21:06:23.318Z,23.10
2022-08-17T21:11:57.335Z,23.52
2022-08-17T21:14:41.939Z,23.00
2022-08-17T21:17:26.342Z,25.20
2022-08-17T21:20:17.119Z,25.42
2022-08-17T21:22:59.061Z,26.75
2022-08-17T21:25:49.055Z,26.90
2022-08-17T21:29:01.361Z,26.45
2022-08-17T21:31:35.773Z,26.60
2022-08-17T21:34:33.396Z,24.88
2022-08-17T21:37:29.687Z,24.52
2022-08-17T21:40:01.119Z,25.77
2022-08-17T21:42:32.471Z,26.02
2022-08-17T21:45:10.072Z,26.85
2022-08-17T21:47:45.426Z,26.60
2022-08-17T21:50:19.933Z,26.75
2022-08-17T21:52:49.963Z,26.02
2022-08-17T21:55:28.196Z,27.77
2022-08-17T21:58:13.848Z,26.48
2022-08-17T22:00:44.980Z,28.33
2022-08-17T22:03:24.564Z,27.90
2022-08-17T22:05:52.497Z,27.73
2022-08-17T22:08:23.578Z,29.83
2022-08-17T22:11:31.589Z,28.07
2022-08-17T22:14:06.000Z,27.58
2022-08-17T22:16:34.801Z,28.73
2022-08-17T22:19:06.490Z,32.80
2022-08-17T22:21:34.255Z,33.00
2022-08-17T22:24:05.605Z,31.35
2022-08-17T22:27:00.478Z,35.05
2022-08-17T22:29:57.362Z,37.25
2022-08-17T22:32:36.126Z,36.70
2022-08-17T22:35:19.571Z,37.00
2022-08-17T22:37:47.596Z,36.47
2022-08-17T22:40:28.093Z,37.83
2022-08-17T22:42:57.166Z,36.30
2022-08-17T22:45:28.355Z,37.85
2022-08-17T22:47:58.649Z,37.03
2022-08-17T22:50:30.114Z,36.15
2022-08-17T22:53:18.088Z,38.03
2022-08-17T22:56:08.843Z,38.90
2022-08-17T22:59:02.229Z,38.75
2022-08-17T23:01:35.370Z,39.92
2022-08-17T23:04:06.587Z,41.58
2022-08-17T23:06:36.665Z,40.58
2022-08-17T23:09:06.157Z,41.30
2022-08-17T23:11:48.771Z,41.78
2022-08-17T23:14:19.145Z,42.10
2022-08-17T23:16:49.712Z,44.28
2022-08-17T23:19:20.911Z,42.88
2022-08-17T23:21:55.161Z,41.78
2022-08-17T23:24:25.307Z,41.42
2022-08-17T23:26:54.173Z,40.65
2022-08-17T23:29:22.494Z,41.05
2022-08-17T23:31:52.438Z,41.03
2022-08-17T23:34:20.794Z,41.53
2022-08-17T23:36:52.649Z,42.88
2022-08-17T23:39:24.526Z,41.00
2022-08-17T23:41:56.701Z,43.10
2022-08-17T23:44:24.799Z,41.13
2022-08-17T23:46:54.685Z,42.22
2022-08-17T23:49:24.333Z,39.45
2022-08-17T23:51:53.573Z,42.08
2022-08-17T23:54:24.990Z,43.15
2022-08-17T23:56:53.080Z,40.88
2022-08-17T23:59:23.182Z,42.17
